sensor_id;sensor_type;location;lat;lon;timestamp;temperature;humidity
76293;DHT22;67256;51.154;4.164;2023-11-22T00:00:20;8.50;96.70
76293;DHT22;67256;51.154;4.164;2023-11-22T00:02:46;8.50;96.70
76293;DHT22;67256;51.154;4.164;2023-11-22T00:05:16;8.50;96.50
76293;DHT22;67256;51.154;4.164;2023-11-22T00:07:42;8.50;96.80
76293;DHT22;67256;51.154;4.164;2023-11-22T00:10:08;8.60;96.60
76293;DHT22;67256;51.154;4.164;2023-11-22T00:12:34;8.60;96.40
76293;DHT22;67256;51.154;4.164;2023-11-22T00:15:04;8.60;96.40
76293;DHT22;67256;51.154;4.164;2023-11-22T00:17:35;8.60;96.00
76293;DHT22;67256;51.154;4.164;2023-11-22T00:20:00;8.60;96.10
76293;DHT22;67256;51.154;4.164;2023-11-22T00:22:31;8.60;96.20
76293;DHT22;67256;51.154;4.164;2023-11-22T00:24:58;8.70;96.10
76293;DHT22;67256;51.154;4.164;2023-11-22T00:27:24;8.70;95.90
76293;DHT22;67256;51.154;4.164;2023-11-22T00:29:50;8.70;95.90
76293;DHT22;67256;51.154;4.164;2023-11-22T00:32:17;8.70;95.60
76293;DHT22;67256;51.154;4.164;2023-11-22T00:34:45;8.70;95.50
76293;DHT22;67256;51.154;4.164;2023-11-22T00:37:11;8.80;95.60
76293;DHT22;67256;51.154;4.164;2023-11-22T00:39:36;8.70;95.50
76293;DHT22;67256;51.154;4.164;2023-11-22T00:42:03;8.80;95.40
76293;DHT22;67256;51.154;4.164;2023-11-22T00:44:30;8.80;95.30
76293;DHT22;67256;51.154;4.164;2023-11-22T00:46:56;8.80;95.20
76293;DHT22;67256;51.154;4.164;2023-11-22T00:49:23;8.70;95.50
76293;DHT22;67256;51.154;4.164;2023-11-22T00:51:49;8.80;95.30
76293;DHT22;67256;51.154;4.164;2023-11-22T00:54:16;8.80;95.10
76293;DHT22;67256;51.154;4.164;2023-11-22T00:56:42;8.80;95.10
76293;DHT22;67256;51.154;4.164;2023-11-22T00:59:08;8.70;95.30
76293;DHT22;67256;51.154;4.164;2023-11-22T01:01:34;8.60;95.30
76293;DHT22;67256;51.154;4.164;2023-11-22T01:04:00;8.60;95.40
76293;DHT22;67256;51.154;4.164;2023-11-22T01:06:26;8.60;95.20
76293;DHT22;67256;51.154;4.164;2023-11-22T01:08:52;8.50;95.30
76293;DHT22;67256;51.154;4.164;2023-11-22T01:11:18;8.40;95.70
76293;DHT22;67256;51.154;4.164;2023-11-22T01:13:43;8.30;95.70
76293;DHT22;67256;51.154;4.164;2023-11-22T01:16:10;8.30;95.80
76293;DHT22;67256;51.154;4.164;2023-11-22T01:18:36;8.30;95.60
76293;DHT22;67256;51.154;4.164;2023-11-22T01:21:03;8.40;95.50
76293;DHT22;67256;51.154;4.164;2023-11-22T01:23:30;8.50;95.20
76293;DHT22;67256;51.154;4.164;2023-11-22T01:25:58;8.50;95.00
76293;DHT22;67256;51.154;4.164;2023-11-22T01:28:24;8.50;95.10
76293;DHT22;67256;51.154;4.164;2023-11-22T01:30:50;8.60;94.90
76293;DHT22;67256;51.154;4.164;2023-11-22T01:33:16;8.60;95.00
76293;DHT22;67256;51.154;4.164;2023-11-22T01:35:42;8.50;94.80
76293;DHT22;67256;51.154;4.164;2023-11-22T01:38:07;8.50;94.90
76293;DHT22;67256;51.154;4.164;2023-11-22T01:40:34;8.50;94.80
76293;DHT22;67256;51.154;4.164;2023-11-22T01:43:00;8.50;94.90
76293;DHT22;67256;51.154;4.164;2023-11-22T01:45:28;8.60;94.80
76293;DHT22;67256;51.154;4.164;2023-11-22T01:47:54;8.60;94.60
76293;DHT22;67256;51.154;4.164;2023-11-22T01:50:21;8.70;94.40
76293;DHT22;67256;51.154;4.164;2023-11-22T01:52:47;8.60;94.30
76293;DHT22;67256;51.154;4.164;2023-11-22T01:55:13;8.50;94.70
76293;DHT22;67256;51.154;4.164;2023-11-22T01:57:41;8.50;94.70
76293;DHT22;67256;51.154;4.164;2023-11-22T02:00:08;8.50;94.50
76293;DHT22;67256;51.154;4.164;2023-11-22T02:02:34;8.60;94.40
76293;DHT22;67256;51.154;4.164;2023-11-22T02:05:00;8.60;93.90
76293;DHT22;67256;51.154;4.164;2023-11-22T02:07:27;8.50;93.50
76293;DHT22;67256;51.154;4.164;2023-11-22T02:09:53;8.50;93.40
76293;DHT22;67256;51.154;4.164;2023-11-22T02:12:19;8.50;93.50
76293;DHT22;67256;51.154;4.164;2023-11-22T02:14:45;8.40;93.40
76293;DHT22;67256;51.154;4.164;2023-11-22T02:17:12;8.40;93.50
76293;DHT22;67256;51.154;4.164;2023-11-22T02:19:38;8.30;93.60
76293;DHT22;67256;51.154;4.164;2023-11-22T02:22:04;8.30;93.60
76293;DHT22;67256;51.154;4.164;2023-11-22T02:24:30;8.30;93.60
76293;DHT22;67256;51.154;4.164;2023-11-22T02:26:55;8.30;93.90
76293;DHT22;67256;51.154;4.164;2023-11-22T02:29:21;8.30;93.90
76293;DHT22;67256;51.154;4.164;2023-11-22T02:31:48;8.30;93.90
76293;DHT22;67256;51.154;4.164;2023-11-22T02:34:14;8.30;93.60
76293;DHT22;67256;51.154;4.164;2023-11-22T02:36:44;8.20;93.30
76293;DHT22;67256;51.154;4.164;2023-11-22T02:39:10;8.20;93.30
76293;DHT22;67256;51.154;4.164;2023-11-22T02:41:36;8.10;93.20
76293;DHT22;67256;51.154;4.164;2023-11-22T02:44:02;8.10;93.30
76293;DHT22;67256;51.154;4.164;2023-11-22T02:46:28;8.00;93.60
76293;DHT22;67256;51.154;4.164;2023-11-22T02:48:56;8.00;94.40
76293;DHT22;67256;51.154;4.164;2023-11-22T02:51:22;8.00;94.40
76293;DHT22;67256;51.154;4.164;2023-11-22T02:53:48;8.00;94.20
76293;DHT22;67256;51.154;4.164;2023-11-22T02:56:15;8.00;93.70
76293;DHT22;67256;51.154;4.164;2023-11-22T02:58:41;8.00;93.40
76293;DHT22;67256;51.154;4.164;2023-11-22T03:01:07;8.00;93.30
76293;DHT22;67256;51.154;4.164;2023-11-22T03:03:34;8.00;93.10
76293;DHT22;67256;51.154;4.164;2023-11-22T03:06:00;7.90;93.10
76293;DHT22;67256;51.154;4.164;2023-11-22T03:08:26;7.80;93.10
76293;DHT22;67256;51.154;4.164;2023-11-22T03:10:53;7.80;93.20
76293;DHT22;67256;51.154;4.164;2023-11-22T03:13:19;7.80;93.10
76293;DHT22;67256;51.154;4.164;2023-11-22T03:15:45;7.80;93.10
76293;DHT22;67256;51.154;4.164;2023-11-22T03:18:11;7.80;93.10
76293;DHT22;67256;51.154;4.164;2023-11-22T03:20:37;7.80;93.20
76293;DHT22;67256;51.154;4.164;2023-11-22T03:23:04;7.80;93.00
76293;DHT22;67256;51.154;4.164;2023-11-22T03:25:30;7.70;93.00
76293;DHT22;67256;51.154;4.164;2023-11-22T03:27:56;7.70;92.80
76293;DHT22;67256;51.154;4.164;2023-11-22T03:30:22;7.70;92.90
76293;DHT22;67256;51.154;4.164;2023-11-22T03:32:48;7.70;92.90
76293;DHT22;67256;51.154;4.164;2023-11-22T03:35:15;7.70;92.90
76293;DHT22;67256;51.154;4.164;2023-11-22T03:37:42;7.70;92.80
76293;DHT22;67256;51.154;4.164;2023-11-22T03:40:08;7.60;92.90
76293;DHT22;67256;51.154;4.164;2023-11-22T03:42:36;7.60;93.10
76293;DHT22;67256;51.154;4.164;2023-11-22T03:45:03;7.50;93.20
76293;DHT22;67256;51.154;4.164;2023-11-22T03:47:29;7.60;93.40
76293;DHT22;67256;51.154;4.164;2023-11-22T03:49:55;7.60;93.60
76293;DHT22;67256;51.154;4.164;2023-11-22T03:52:21;7.60;93.70
76293;DHT22;67256;51.154;4.164;2023-11-22T03:54:47;7.60;93.40
76293;DHT22;67256;51.154;4.164;2023-11-22T03:57:13;7.60;93.30
76293;DHT22;67256;51.154;4.164;2023-11-22T03:59:40;7.60;93.60
76293;DHT22;67256;51.154;4.164;2023-11-22T04:02:07;7.60;93.20
76293;DHT22;67256;51.154;4.164;2023-11-22T04:04:32;7.60;93.10
76293;DHT22;67256;51.154;4.164;2023-11-22T04:06:59;7.60;93.60
76293;DHT22;67256;51.154;4.164;2023-11-22T04:09:25;7.70;93.40
76293;DHT22;67256;51.154;4.164;2023-11-22T04:11:50;7.60;93.40
76293;DHT22;67256;51.154;4.164;2023-11-22T04:14:16;7.70;93.50
76293;DHT22;67256;51.154;4.164;2023-11-22T04:16:44;7.70;93.50
76293;DHT22;67256;51.154;4.164;2023-11-22T04:19:10;7.70;94.00
76293;DHT22;67256;51.154;4.164;2023-11-22T04:21:36;7.70;94.20
76293;DHT22;67256;51.154;4.164;2023-11-22T04:24:01;7.60;94.50
76293;DHT22;67256;51.154;4.164;2023-11-22T04:26:27;7.60;94.60
76293;DHT22;67256;51.154;4.164;2023-11-22T04:28:53;7.60;94.70
76293;DHT22;67256;51.154;4.164;2023-11-22T04:31:19;7.60;94.90
76293;DHT22;67256;51.154;4.164;2023-11-22T04:33:45;7.70;94.90
76293;DHT22;67256;51.154;4.164;2023-11-22T04:36:11;7.80;94.60
76293;DHT22;67256;51.154;4.164;2023-11-22T04:38:37;7.80;94.60
76293;DHT22;67256;51.154;4.164;2023-11-22T04:41:03;7.90;94.50
76293;DHT22;67256;51.154;4.164;2023-11-22T04:43:29;7.80;94.70
76293;DHT22;67256;51.154;4.164;2023-11-22T04:45:54;7.80;94.70
76293;DHT22;67256;51.154;4.164;2023-11-22T04:48:20;7.80;94.70
76293;DHT22;67256;51.154;4.164;2023-11-22T04:50:46;7.80;94.80
76293;DHT22;67256;51.154;4.164;2023-11-22T04:53:12;7.90;94.70
76293;DHT22;67256;51.154;4.164;2023-11-22T04:55:37;7.90;94.60
76293;DHT22;67256;51.154;4.164;2023-11-22T04:58:04;7.90;94.50
76293;DHT22;67256;51.154;4.164;2023-11-22T05:00:29;7.90;94.40
76293;DHT22;67256;51.154;4.164;2023-11-22T05:02:55;7.80;95.20
76293;DHT22;67256;51.154;4.164;2023-11-22T05:05:21;7.70;95.00
76293;DHT22;67256;51.154;4.164;2023-11-22T05:07:47;7.70;95.00
76293;DHT22;67256;51.154;4.164;2023-11-22T05:10:15;7.60;95.40
76293;DHT22;67256;51.154;4.164;2023-11-22T05:12:42;7.70;95.40
76293;DHT22;67256;51.154;4.164;2023-11-22T05:15:09;7.70;95.40
76293;DHT22;67256;51.154;4.164;2023-11-22T05:17:35;7.70;95.40
76293;DHT22;67256;51.154;4.164;2023-11-22T05:20:02;7.80;95.20
76293;DHT22;67256;51.154;4.164;2023-11-22T05:22:27;7.80;95.00
76293;DHT22;67256;51.154;4.164;2023-11-22T05:24:53;7.80;94.70
76293;DHT22;67256;51.154;4.164;2023-11-22T05:27:20;7.70;94.60
76293;DHT22;67256;51.154;4.164;2023-11-22T05:29:45;7.70;94.50
76293;DHT22;67256;51.154;4.164;2023-11-22T05:32:11;7.70;94.50
76293;DHT22;67256;51.154;4.164;2023-11-22T05:34:37;7.70;94.30
76293;DHT22;67256;51.154;4.164;2023-11-22T05:37:06;7.70;94.70
76293;DHT22;67256;51.154;4.164;2023-11-22T05:39:31;7.70;94.80
76293;DHT22;67256;51.154;4.164;2023-11-22T05:41:57;7.70;94.30
76293;DHT22;67256;51.154;4.164;2023-11-22T05:44:23;7.70;94.20
76293;DHT22;67256;51.154;4.164;2023-11-22T05:46:51;7.60;94.20
76293;DHT22;67256;51.154;4.164;2023-11-22T05:49:17;7.60;94.10
76293;DHT22;67256;51.154;4.164;2023-11-22T05:51:43;7.60;94.10
76293;DHT22;67256;51.154;4.164;2023-11-22T05:54:09;7.60;94.20
76293;DHT22;67256;51.154;4.164;2023-11-22T05:56:38;7.60;94.20
76293;DHT22;67256;51.154;4.164;2023-11-22T05:59:03;7.60;94.10
76293;DHT22;67256;51.154;4.164;2023-11-22T06:01:29;7.60;94.00
76293;DHT22;67256;51.154;4.164;2023-11-22T06:03:57;7.60;94.10
76293;DHT22;67256;51.154;4.164;2023-11-22T06:06:23;7.60;94.20
76293;DHT22;67256;51.154;4.164;2023-11-22T06:08:49;7.60;94.20
76293;DHT22;67256;51.154;4.164;2023-11-22T06:11:15;7.60;94.20
76293;DHT22;67256;51.154;4.164;2023-11-22T06:13:41;7.60;94.20
76293;DHT22;67256;51.154;4.164;2023-11-22T06:16:08;7.60;94.30
76293;DHT22;67256;51.154;4.164;2023-11-22T06:18:35;7.60;94.40
76293;DHT22;67256;51.154;4.164;2023-11-22T06:21:06;7.60;94.30
76293;DHT22;67256;51.154;4.164;2023-11-22T06:23:32;7.60;94.30
76293;DHT22;67256;51.154;4.164;2023-11-22T06:25:58;7.60;94.20
76293;DHT22;67256;51.154;4.164;2023-11-22T06:28:24;7.60;94.30
76293;DHT22;67256;51.154;4.164;2023-11-22T06:30:50;7.60;94.60
76293;DHT22;67256;51.154;4.164;2023-11-22T06:33:16;7.60;94.60
76293;DHT22;67256;51.154;4.164;2023-11-22T06:35:42;7.60;94.50
76293;DHT22;67256;51.154;4.164;2023-11-22T06:38:08;7.60;94.50
76293;DHT22;67256;51.154;4.164;2023-11-22T06:40:34;7.60;94.70
76293;DHT22;67256;51.154;4.164;2023-11-22T06:43:00;7.60;94.60
76293;DHT22;67256;51.154;4.164;2023-11-22T06:45:26;7.60;94.40
76293;DHT22;67256;51.154;4.164;2023-11-22T06:47:52;7.60;94.60
76293;DHT22;67256;51.154;4.164;2023-11-22T06:50:18;7.60;94.60
76293;DHT22;67256;51.154;4.164;2023-11-22T06:52:44;7.60;94.70
76293;DHT22;67256;51.154;4.164;2023-11-22T06:55:11;7.60;94.70
76293;DHT22;67256;51.154;4.164;2023-11-22T06:57:38;7.60;94.70
76293;DHT22;67256;51.154;4.164;2023-11-22T07:00:05;7.60;94.90
76293;DHT22;67256;51.154;4.164;2023-11-22T07:02:34;7.70;94.80
76293;DHT22;67256;51.154;4.164;2023-11-22T07:05:03;7.60;94.80
76293;DHT22;67256;51.154;4.164;2023-11-22T07:07:33;7.70;94.80
76293;DHT22;67256;51.154;4.164;2023-11-22T07:09:59;7.60;94.70
76293;DHT22;67256;51.154;4.164;2023-11-22T07:12:25;7.70;95.00
76293;DHT22;67256;51.154;4.164;2023-11-22T07:14:52;7.70;95.00
76293;DHT22;67256;51.154;4.164;2023-11-22T07:17:18;7.70;95.00
76293;DHT22;67256;51.154;4.164;2023-11-22T07:19:44;7.70;95.00
76293;DHT22;67256;51.154;4.164;2023-11-22T07:22:15;7.80;95.00
76293;DHT22;67256;51.154;4.164;2023-11-22T07:24:45;7.80;95.00
76293;DHT22;67256;51.154;4.164;2023-11-22T07:27:13;7.80;95.10
76293;DHT22;67256;51.154;4.164;2023-11-22T07:29:42;7.80;95.10
76293;DHT22;67256;51.154;4.164;2023-11-22T07:32:08;7.80;95.20
76293;DHT22;67256;51.154;4.164;2023-11-22T07:34:35;7.80;95.10
76293;DHT22;67256;51.154;4.164;2023-11-22T07:37:01;7.90;94.90
76293;DHT22;67256;51.154;4.164;2023-11-22T07:39:30;7.90;94.90
76293;DHT22;67256;51.154;4.164;2023-11-22T07:41:56;7.80;94.90
76293;DHT22;67256;51.154;4.164;2023-11-22T07:44:23;7.90;95.10
76293;DHT22;67256;51.154;4.164;2023-11-22T07:46:52;7.90;95.20
76293;DHT22;67256;51.154;4.164;2023-11-22T07:49:22;8.00;95.20
76293;DHT22;67256;51.154;4.164;2023-11-22T07:51:48;8.00;95.10
76293;DHT22;67256;51.154;4.164;2023-11-22T07:54:19;8.00;95.10
76293;DHT22;67256;51.154;4.164;2023-11-22T07:56:48;8.00;95.10
76293;DHT22;67256;51.154;4.164;2023-11-22T07:59:14;8.00;95.10
76293;DHT22;67256;51.154;4.164;2023-11-22T08:01:43;8.00;95.10
76293;DHT22;67256;51.154;4.164;2023-11-22T08:04:09;8.00;95.20
76293;DHT22;67256;51.154;4.164;2023-11-22T08:06:35;8.00;95.20
76293;DHT22;67256;51.154;4.164;2023-11-22T08:09:01;8.00;95.00
76293;DHT22;67256;51.154;4.164;2023-11-22T08:11:30;8.00;95.10
76293;DHT22;67256;51.154;4.164;2023-11-22T08:13:57;8.00;95.00
76293;DHT22;67256;51.154;4.164;2023-11-22T08:16:25;8.10;95.10
76293;DHT22;67256;51.154;4.164;2023-11-22T08:18:51;8.10;95.30
76293;DHT22;67256;51.154;4.164;2023-11-22T08:21:17;8.10;95.00
76293;DHT22;67256;51.154;4.164;2023-11-22T08:23:45;8.10;95.20
76293;DHT22;67256;51.154;4.164;2023-11-22T08:26:12;8.10;95.20
76293;DHT22;67256;51.154;4.164;2023-11-22T08:28:39;8.20;95.40
76293;DHT22;67256;51.154;4.164;2023-11-22T08:31:05;8.20;95.20
76293;DHT22;67256;51.154;4.164;2023-11-22T08:33:35;8.30;95.20
76293;DHT22;67256;51.154;4.164;2023-11-22T08:36:01;8.30;95.30
76293;DHT22;67256;51.154;4.164;2023-11-22T08:38:30;8.30;95.30
76293;DHT22;67256;51.154;4.164;2023-11-22T08:41:02;8.40;95.50
76293;DHT22;67256;51.154;4.164;2023-11-22T08:43:28;8.40;95.10
76293;DHT22;67256;51.154;4.164;2023-11-22T08:45:54;8.40;95.10
76293;DHT22;67256;51.154;4.164;2023-11-22T08:48:20;8.40;95.20
76293;DHT22;67256;51.154;4.164;2023-11-22T08:50:46;8.40;95.20
76293;DHT22;67256;51.154;4.164;2023-11-22T08:53:13;8.50;95.20
76293;DHT22;67256;51.154;4.164;2023-11-22T08:55:39;8.50;95.20
76293;DHT22;67256;51.154;4.164;2023-11-22T08:58:05;8.50;95.10
76293;DHT22;67256;51.154;4.164;2023-11-22T09:00:31;8.60;95.30
76293;DHT22;67256;51.154;4.164;2023-11-22T09:02:58;8.60;95.20
76293;DHT22;67256;51.154;4.164;2023-11-22T09:05:23;8.60;95.30
76293;DHT22;67256;51.154;4.164;2023-11-22T09:07:50;8.70;95.10
76293;DHT22;67256;51.154;4.164;2023-11-22T09:10:16;8.70;95.10
76293;DHT22;67256;51.154;4.164;2023-11-22T09:12:45;8.70;95.00
76293;DHT22;67256;51.154;4.164;2023-11-22T09:15:14;8.70;94.90
76293;DHT22;67256;51.154;4.164;2023-11-22T09:17:43;8.70;94.80
76293;DHT22;67256;51.154;4.164;2023-11-22T09:20:18;8.70;94.60
76293;DHT22;67256;51.154;4.164;2023-11-22T09:22:50;8.70;94.70
76293;DHT22;67256;51.154;4.164;2023-11-22T09:25:26;8.80;94.90
76293;DHT22;67256;51.154;4.164;2023-11-22T09:27:54;8.80;94.80
76293;DHT22;67256;51.154;4.164;2023-11-22T09:30:24;8.80;94.70
76293;DHT22;67256;51.154;4.164;2023-11-22T09:33:11;8.70;94.80
76293;DHT22;67256;51.154;4.164;2023-11-22T09:35:38;8.60;94.80
76293;DHT22;67256;51.154;4.164;2023-11-22T09:38:06;8.60;94.80
76293;DHT22;67256;51.154;4.164;2023-11-22T09:40:47;8.70;95.00
76293;DHT22;67256;51.154;4.164;2023-11-22T09:43:14;8.80;95.10
76293;DHT22;67256;51.154;4.164;2023-11-22T09:45:46;8.70;95.30
76293;DHT22;67256;51.154;4.164;2023-11-22T09:48:19;8.70;95.00
76293;DHT22;67256;51.154;4.164;2023-11-22T09:53:17;8.80;94.90
76293;DHT22;67256;51.154;4.164;2023-11-22T09:55:45;8.80;95.00
76293;DHT22;67256;51.154;4.164;2023-11-22T09:58:16;8.80;95.10
76293;DHT22;67256;51.154;4.164;2023-11-22T10:00:43;8.80;95.20
76293;DHT22;67256;51.154;4.164;2023-11-22T10:03:10;8.80;95.30
76293;DHT22;67256;51.154;4.164;2023-11-22T10:05:41;8.90;95.10
76293;DHT22;67256;51.154;4.164;2023-11-22T10:08:07;8.90;95.00
76293;DHT22;67256;51.154;4.164;2023-11-22T10:10:36;8.90;95.10
76293;DHT22;67256;51.154;4.164;2023-11-22T10:13:02;8.90;94.80
76293;DHT22;67256;51.154;4.164;2023-11-22T10:15:30;8.70;94.90
76293;DHT22;67256;51.154;4.164;2023-11-22T10:18:00;8.70;95.10
76293;DHT22;67256;51.154;4.164;2023-11-22T10:20:40;8.80;95.30
76293;DHT22;67256;51.154;4.164;2023-11-22T10:23:13;8.80;95.40
76293;DHT22;67256;51.154;4.164;2023-11-22T10:25:52;8.90;95.40
76293;DHT22;67256;51.154;4.164;2023-11-22T10:28:19;8.90;95.30
76293;DHT22;67256;51.154;4.164;2023-11-22T10:30:46;8.90;95.20
76293;DHT22;67256;51.154;4.164;2023-11-22T10:33:12;8.80;95.00
76293;DHT22;67256;51.154;4.164;2023-11-22T10:35:48;8.90;95.20
76293;DHT22;67256;51.154;4.164;2023-11-22T10:38:15;8.90;95.30
76293;DHT22;67256;51.154;4.164;2023-11-22T10:40:41;8.80;95.30
76293;DHT22;67256;51.154;4.164;2023-11-22T10:43:12;8.90;95.50
76293;DHT22;67256;51.154;4.164;2023-11-22T10:45:38;9.00;95.20
76293;DHT22;67256;51.154;4.164;2023-11-22T10:48:07;9.00;95.10
76293;DHT22;67256;51.154;4.164;2023-11-22T10:50:34;8.90;95.10
76293;DHT22;67256;51.154;4.164;2023-11-22T10:53:01;9.00;95.20
76293;DHT22;67256;51.154;4.164;2023-11-22T10:55:32;9.00;95.30
76293;DHT22;67256;51.154;4.164;2023-11-22T10:58:02;9.00;95.30
76293;DHT22;67256;51.154;4.164;2023-11-22T11:00:31;9.10;95.20
76293;DHT22;67256;51.154;4.164;2023-11-22T11:03:00;9.20;95.40
76293;DHT22;67256;51.154;4.164;2023-11-22T11:05:30;9.30;95.20
76293;DHT22;67256;51.154;4.164;2023-11-22T11:08:17;9.30;95.20
76293;DHT22;67256;51.154;4.164;2023-11-22T11:10:46;9.40;95.00
76293;DHT22;67256;51.154;4.164;2023-11-22T11:13:13;9.30;94.90
76293;DHT22;67256;51.154;4.164;2023-11-22T11:15:43;9.30;94.90
76293;DHT22;67256;51.154;4.164;2023-11-22T11:18:13;9.20;94.80
76293;DHT22;67256;51.154;4.164;2023-11-22T11:20:53;9.30;95.10
76293;DHT22;67256;51.154;4.164;2023-11-22T11:23:23;9.20;95.00
76293;DHT22;67256;51.154;4.164;2023-11-22T11:25:55;9.20;94.80
76293;DHT22;67256;51.154;4.164;2023-11-22T11:28:22;9.10;95.30
76293;DHT22;67256;51.154;4.164;2023-11-22T11:30:51;9.10;95.00
76293;DHT22;67256;51.154;4.164;2023-11-22T11:33:33;9.20;95.20
76293;DHT22;67256;51.154;4.164;2023-11-22T11:36:02;9.10;95.10
76293;DHT22;67256;51.154;4.164;2023-11-22T11:38:34;9.20;95.20
76293;DHT22;67256;51.154;4.164;2023-11-22T11:41:08;9.20;95.20
76293;DHT22;67256;51.154;4.164;2023-11-22T11:43:42;9.30;95.30
76293;DHT22;67256;51.154;4.164;2023-11-22T11:46:08;9.30;95.50
76293;DHT22;67256;51.154;4.164;2023-11-22T11:48:35;9.30;95.30
76293;DHT22;67256;51.154;4.164;2023-11-22T11:51:00;9.30;95.00
76293;DHT22;67256;51.154;4.164;2023-11-22T11:53:27;9.20;95.00
76293;DHT22;67256;51.154;4.164;2023-11-22T11:55:54;9.20;95.50
76293;DHT22;67256;51.154;4.164;2023-11-22T11:58:20;9.20;95.20
76293;DHT22;67256;51.154;4.164;2023-11-22T12:00:46;9.20;95.50
76293;DHT22;67256;51.154;4.164;2023-11-22T12:03:11;9.20;95.20
76293;DHT22;67256;51.154;4.164;2023-11-22T12:05:38;9.30;95.40
76293;DHT22;67256;51.154;4.164;2023-11-22T12:08:05;9.30;95.30
76293;DHT22;67256;51.154;4.164;2023-11-22T12:10:31;9.20;95.00
76293;DHT22;67256;51.154;4.164;2023-11-22T12:12:58;9.20;95.10
76293;DHT22;67256;51.154;4.164;2023-11-22T12:15:25;9.20;95.10
76293;DHT22;67256;51.154;4.164;2023-11-22T12:17:50;9.10;95.10
76293;DHT22;67256;51.154;4.164;2023-11-22T12:20:17;9.00;95.50
76293;DHT22;67256;51.154;4.164;2023-11-22T12:22:49;9.10;95.30
76293;DHT22;67256;51.154;4.164;2023-11-22T12:25:15;9.20;95.20
76293;DHT22;67256;51.154;4.164;2023-11-22T12:27:42;9.20;95.00
76293;DHT22;67256;51.154;4.164;2023-11-22T12:30:08;9.00;95.40
76293;DHT22;67256;51.154;4.164;2023-11-22T12:32:40;8.90;95.70
76293;DHT22;67256;51.154;4.164;2023-11-22T12:35:08;8.90;95.60
76293;DHT22;67256;51.154;4.164;2023-11-22T12:37:34;8.90;95.30
76293;DHT22;67256;51.154;4.164;2023-11-22T12:40:09;9.00;95.50
76293;DHT22;67256;51.154;4.164;2023-11-22T12:42:49;9.00;95.60
76293;DHT22;67256;51.154;4.164;2023-11-22T12:45:22;9.00;95.60
76293;DHT22;67256;51.154;4.164;2023-11-22T12:47:50;9.10;95.40
76293;DHT22;67256;51.154;4.164;2023-11-22T12:50:35;9.20;95.40
76293;DHT22;67256;51.154;4.164;2023-11-22T12:55:46;9.20;95.10
76293;DHT22;67256;51.154;4.164;2023-11-22T12:58:13;9.20;95.20
76293;DHT22;67256;51.154;4.164;2023-11-22T13:00:40;9.30;95.20
76293;DHT22;67256;51.154;4.164;2023-11-22T13:03:07;9.30;95.10
76293;DHT22;67256;51.154;4.164;2023-11-22T13:05:33;9.30;94.80
76293;DHT22;67256;51.154;4.164;2023-11-22T13:07:59;9.40;94.90
76293;DHT22;67256;51.154;4.164;2023-11-22T13:10:25;9.40;94.90
76293;DHT22;67256;51.154;4.164;2023-11-22T13:12:54;9.30;94.70
76293;DHT22;67256;51.154;4.164;2023-11-22T13:15:21;9.30;95.00
76293;DHT22;67256;51.154;4.164;2023-11-22T13:17:50;9.30;95.00
76293;DHT22;67256;51.154;4.164;2023-11-22T13:20:17;9.20;95.00
76293;DHT22;67256;51.154;4.164;2023-11-22T13:22:45;9.30;94.90
76293;DHT22;67256;51.154;4.164;2023-11-22T13:25:12;9.40;94.90
76293;DHT22;67256;51.154;4.164;2023-11-22T13:27:47;9.50;94.60
76293;DHT22;67256;51.154;4.164;2023-11-22T13:30:15;9.60;94.40
76293;DHT22;67256;51.154;4.164;2023-11-22T13:32:41;9.50;94.60
76293;DHT22;67256;51.154;4.164;2023-11-22T13:35:07;9.60;94.50
76293;DHT22;67256;51.154;4.164;2023-11-22T13:37:39;9.50;94.50
76293;DHT22;67256;51.154;4.164;2023-11-22T13:40:11;9.50;94.60
76293;DHT22;67256;51.154;4.164;2023-11-22T13:45:09;9.50;94.30
76293;DHT22;67256;51.154;4.164;2023-11-22T13:47:35;9.60;94.50
76293;DHT22;67256;51.154;4.164;2023-11-22T13:50:01;9.60;94.50
76293;DHT22;67256;51.154;4.164;2023-11-22T13:52:29;9.60;94.50
76293;DHT22;67256;51.154;4.164;2023-11-22T13:54:55;9.50;94.50
76293;DHT22;67256;51.154;4.164;2023-11-22T13:57:23;9.60;94.70
76293;DHT22;67256;51.154;4.164;2023-11-22T13:59:48;9.70;94.60
76293;DHT22;67256;51.154;4.164;2023-11-22T14:02:14;9.60;94.70
76293;DHT22;67256;51.154;4.164;2023-11-22T14:04:42;9.60;94.80
76293;DHT22;67256;51.154;4.164;2023-11-22T14:07:09;9.60;94.60
76293;DHT22;67256;51.154;4.164;2023-11-22T14:09:35;9.60;94.70
76293;DHT22;67256;51.154;4.164;2023-11-22T14:12:02;9.50;94.80
76293;DHT22;67256;51.154;4.164;2023-11-22T14:14:28;9.60;94.70
76293;DHT22;67256;51.154;4.164;2023-11-22T14:16:54;9.60;94.70
76293;DHT22;67256;51.154;4.164;2023-11-22T14:19:19;9.70;94.50
76293;DHT22;67256;51.154;4.164;2023-11-22T14:21:45;9.70;94.30
76293;DHT22;67256;51.154;4.164;2023-11-22T14:24:11;9.70;94.60
76293;DHT22;67256;51.154;4.164;2023-11-22T14:26:38;9.70;94.70
76293;DHT22;67256;51.154;4.164;2023-11-22T14:29:03;9.70;94.50
76293;DHT22;67256;51.154;4.164;2023-11-22T14:31:31;9.70;94.70
76293;DHT22;67256;51.154;4.164;2023-11-22T14:33:58;9.70;94.60
76293;DHT22;67256;51.154;4.164;2023-11-22T14:36:24;9.70;94.50
76293;DHT22;67256;51.154;4.164;2023-11-22T14:38:52;9.70;94.70
76293;DHT22;67256;51.154;4.164;2023-11-22T14:41:22;9.70;94.60
76293;DHT22;67256;51.154;4.164;2023-11-22T14:43:48;9.70;94.70
76293;DHT22;67256;51.154;4.164;2023-11-22T14:46:14;9.60;94.60
76293;DHT22;67256;51.154;4.164;2023-11-22T14:48:41;9.60;94.70
76293;DHT22;67256;51.154;4.164;2023-11-22T14:51:06;9.70;94.70
76293;DHT22;67256;51.154;4.164;2023-11-22T14:53:34;9.60;94.80
76293;DHT22;67256;51.154;4.164;2023-11-22T14:56:00;9.60;94.90
76293;DHT22;67256;51.154;4.164;2023-11-22T14:58:26;9.60;94.80
76293;DHT22;67256;51.154;4.164;2023-11-22T15:00:53;9.60;94.60
76293;DHT22;67256;51.154;4.164;2023-11-22T15:03:19;9.60;94.80
76293;DHT22;67256;51.154;4.164;2023-11-22T15:05:45;9.60;95.00
76293;DHT22;67256;51.154;4.164;2023-11-22T15:08:11;9.60;94.90
76293;DHT22;67256;51.154;4.164;2023-11-22T15:10:37;9.60;94.80
76293;DHT22;67256;51.154;4.164;2023-11-22T15:13:03;9.70;94.90
76293;DHT22;67256;51.154;4.164;2023-11-22T15:15:28;9.60;94.70
76293;DHT22;67256;51.154;4.164;2023-11-22T15:17:54;9.60;94.90
76293;DHT22;67256;51.154;4.164;2023-11-22T15:20:20;9.60;95.00
76293;DHT22;67256;51.154;4.164;2023-11-22T15:22:46;9.70;95.00
76293;DHT22;67256;51.154;4.164;2023-11-22T15:25:12;9.70;94.90
76293;DHT22;67256;51.154;4.164;2023-11-22T15:27:41;9.70;94.70
76293;DHT22;67256;51.154;4.164;2023-11-22T15:30:07;9.70;94.70
76293;DHT22;67256;51.154;4.164;2023-11-22T15:32:35;9.80;94.80
76293;DHT22;67256;51.154;4.164;2023-11-22T15:35:01;9.80;94.80
76293;DHT22;67256;51.154;4.164;2023-11-22T15:37:27;9.80;94.90
76293;DHT22;67256;51.154;4.164;2023-11-22T15:39:54;9.80;94.80
76293;DHT22;67256;51.154;4.164;2023-11-22T15:42:21;9.80;94.80
76293;DHT22;67256;51.154;4.164;2023-11-22T15:44:46;9.90;94.80
76293;DHT22;67256;51.154;4.164;2023-11-22T15:47:12;9.90;94.70
76293;DHT22;67256;51.154;4.164;2023-11-22T15:49:38;9.80;94.60
76293;DHT22;67256;51.154;4.164;2023-11-22T15:52:04;9.80;94.80